sensor_id;sensor_type;location;lat;lon;timestamp;temperature;humidity
12874;DHT22;6505;51.114;13.128;2022-11-02T00:01:38;18.10;59.40
12874;DHT22;6505;51.114;13.128;2022-11-02T00:04:08;18.10;59.50
12874;DHT22;6505;51.114;13.128;2022-11-02T00:06:37;18.10;59.50
12874;DHT22;6505;51.114;13.128;2022-11-02T00:09:06;18.10;59.40
12874;DHT22;6505;51.114;13.128;2022-11-02T00:11:35;18.10;59.50
12874;DHT22;6505;51.114;13.128;2022-11-02T00:14:04;18.10;59.60
12874;DHT22;6505;51.114;13.128;2022-11-02T00:16:36;18.10;59.50
12874;DHT22;6505;51.114;13.128;2022-11-02T00:19:07;18.00;59.50
12874;DHT22;6505;51.114;13.128;2022-11-02T00:21:36;18.00;60.30
12874;DHT22;6505;51.114;13.128;2022-11-02T00:24:05;18.00;59.60
12874;DHT22;6505;51.114;13.128;2022-11-02T00:26:35;18.00;59.60
12874;DHT22;6505;51.114;13.128;2022-11-02T00:29:04;18.00;59.50
12874;DHT22;6505;51.114;13.128;2022-11-02T00:31:35;18.00;59.50
12874;DHT22;6505;51.114;13.128;2022-11-02T00:34:03;18.00;59.50
12874;DHT22;6505;51.114;13.128;2022-11-02T00:36:31;18.00;59.50
12874;DHT22;6505;51.114;13.128;2022-11-02T00:39:00;18.00;59.60
12874;DHT22;6505;51.114;13.128;2022-11-02T00:41:28;18.00;59.50
12874;DHT22;6505;51.114;13.128;2022-11-02T00:43:56;17.90;59.50
12874;DHT22;6505;51.114;13.128;2022-11-02T00:46:24;17.90;59.40
12874;DHT22;6505;51.114;13.128;2022-11-02T00:48:54;18.00;59.50
12874;DHT22;6505;51.114;13.128;2022-11-02T00:51:22;17.90;59.50
12874;DHT22;6505;51.114;13.128;2022-11-02T00:53:50;17.90;59.50
12874;DHT22;6505;51.114;13.128;2022-11-02T00:56:19;17.90;59.50
12874;DHT22;6505;51.114;13.128;2022-11-02T00:58:47;17.90;59.40
12874;DHT22;6505;51.114;13.128;2022-11-02T01:01:15;17.90;59.40
12874;DHT22;6505;51.114;13.128;2022-11-02T01:03:43;17.80;59.20
12874;DHT22;6505;51.114;13.128;2022-11-02T01:06:14;17.80;59.20
12874;DHT22;6505;51.114;13.128;2022-11-02T01:08:42;17.90;59.30
12874;DHT22;6505;51.114;13.128;2022-11-02T01:11:12;17.80;59.20
12874;DHT22;6505;51.114;13.128;2022-11-02T01:13:43;17.80;59.30
12874;DHT22;6505;51.114;13.128;2022-11-02T01:16:12;17.80;59.30
12874;DHT22;6505;51.114;13.128;2022-11-02T01:18:41;17.80;59.30
12874;DHT22;6505;51.114;13.128;2022-11-02T01:21:12;17.80;59.80
12874;DHT22;6505;51.114;13.128;2022-11-02T01:23:40;17.80;60.00
12874;DHT22;6505;51.114;13.128;2022-11-02T01:26:09;17.80;59.10
12874;DHT22;6505;51.114;13.128;2022-11-02T01:28:39;17.70;59.10
12874;DHT22;6505;51.114;13.128;2022-11-02T01:31:09;17.70;59.10
12874;DHT22;6505;51.114;13.128;2022-11-02T01:33:42;17.70;59.10
12874;DHT22;6505;51.114;13.128;2022-11-02T01:36:14;17.70;59.10
12874;DHT22;6505;51.114;13.128;2022-11-02T01:38:43;17.70;59.10
12874;DHT22;6505;51.114;13.128;2022-11-02T01:41:11;17.70;59.00
12874;DHT22;6505;51.114;13.128;2022-11-02T01:43:41;17.70;59.00
12874;DHT22;6505;51.114;13.128;2022-11-02T01:46:14;17.70;59.10
12874;DHT22;6505;51.114;13.128;2022-11-02T01:48:48;17.60;59.00
12874;DHT22;6505;51.114;13.128;2022-11-02T01:51:27;17.60;59.00
12874;DHT22;6505;51.114;13.128;2022-11-02T01:54:03;17.60;58.90
12874;DHT22;6505;51.114;13.128;2022-11-02T01:56:35;17.60;58.90
12874;DHT22;6505;51.114;13.128;2022-11-02T01:59:07;17.60;58.90
12874;DHT22;6505;51.114;13.128;2022-11-02T02:01:39;17.60;59.70
12874;DHT22;6505;51.114;13.128;2022-11-02T02:04:07;17.60;58.90
12874;DHT22;6505;51.114;13.128;2022-11-02T02:06:40;17.60;58.90
12874;DHT22;6505;51.114;13.128;2022-11-02T02:09:09;17.60;59.00
12874;DHT22;6505;51.114;13.128;2022-11-02T02:11:40;17.60;59.00
12874;DHT22;6505;51.114;13.128;2022-11-02T02:14:10;17.50;58.80
12874;DHT22;6505;51.114;13.128;2022-11-02T02:17:09;17.50;58.80
12874;DHT22;6505;51.114;13.128;2022-11-02T02:20:01;17.50;58.80
12874;DHT22;6505;51.114;13.128;2022-11-02T02:23:07;17.50;58.80
12874;DHT22;6505;51.114;13.128;2022-11-02T02:26:20;17.50;58.80
12874;DHT22;6505;51.114;13.128;2022-11-02T02:29:17;17.50;58.90
12874;DHT22;6505;51.114;13.128;2022-11-02T02:31:54;17.40;58.60
12874;DHT22;6505;51.114;13.128;2022-11-02T02:34:29;17.50;58.70
12874;DHT22;6505;51.114;13.128;2022-11-02T02:37:06;17.40;58.50
12874;DHT22;6505;51.114;13.128;2022-11-02T02:39:40;17.40;58.60
12874;DHT22;6505;51.114;13.128;2022-11-02T02:42:16;17.40;58.60
12874;DHT22;6505;51.114;13.128;2022-11-02T02:44:56;17.40;58.50
12874;DHT22;6505;51.114;13.128;2022-11-02T02:47:29;17.40;58.50
12874;DHT22;6505;51.114;13.128;2022-11-02T02:50:04;17.40;58.50
12874;DHT22;6505;51.114;13.128;2022-11-02T02:52:38;17.30;58.30
12874;DHT22;6505;51.114;13.128;2022-11-02T02:55:14;17.30;58.30
12874;DHT22;6505;51.114;13.128;2022-11-02T02:57:46;17.30;58.30
12874;DHT22;6505;51.114;13.128;2022-11-02T03:00:17;17.30;58.30
12874;DHT22;6505;51.114;13.128;2022-11-02T03:02:47;17.30;58.10
12874;DHT22;6505;51.114;13.128;2022-11-02T03:05:29;17.30;58.10
12874;DHT22;6505;51.114;13.128;2022-11-02T03:08:06;17.30;58.10
12874;DHT22;6505;51.114;13.128;2022-11-02T03:10:43;17.30;58.00
12874;DHT22;6505;51.114;13.128;2022-11-02T03:13:32;17.20;57.80
12874;DHT22;6505;51.114;13.128;2022-11-02T03:16:13;17.20;57.80
12874;DHT22;6505;51.114;13.128;2022-11-02T03:18:54;17.20;57.70
12874;DHT22;6505;51.114;13.128;2022-11-02T03:21:33;17.20;57.70
12874;DHT22;6505;51.114;13.128;2022-11-02T03:24:12;17.20;57.70
12874;DHT22;6505;51.114;13.128;2022-11-02T03:26:47;17.20;57.70
12874;DHT22;6505;51.114;13.128;2022-11-02T03:29:32;17.10;57.50
12874;DHT22;6505;51.114;13.128;2022-11-02T03:32:12;17.10;57.40
12874;DHT22;6505;51.114;13.128;2022-11-02T03:34:51;17.10;57.40
12874;DHT22;6505;51.114;13.128;2022-11-02T03:37:25;17.10;57.40
12874;DHT22;6505;51.114;13.128;2022-11-02T03:40:04;17.10;57.40
12874;DHT22;6505;51.114;13.128;2022-11-02T03:42:40;17.10;57.40
12874;DHT22;6505;51.114;13.128;2022-11-02T03:45:13;17.10;57.50
12874;DHT22;6505;51.114;13.128;2022-11-02T03:47:50;17.00;57.40
12874;DHT22;6505;51.114;13.128;2022-11-02T03:50:23;17.10;57.50
12874;DHT22;6505;51.114;13.128;2022-11-02T03:52:55;17.00;57.40
12874;DHT22;6505;51.114;13.128;2022-11-02T03:55:31;17.00;57.50
12874;DHT22;6505;51.114;13.128;2022-11-02T03:58:03;17.00;57.50
12874;DHT22;6505;51.114;13.128;2022-11-02T04:00:32;17.00;57.50
12874;DHT22;6505;51.114;13.128;2022-11-02T04:03:10;17.00;57.70
12874;DHT22;6505;51.114;13.128;2022-11-02T04:05:42;17.00;57.70
12874;DHT22;6505;51.114;13.128;2022-11-02T04:08:24;17.00;57.70
12874;DHT22;6505;51.114;13.128;2022-11-02T04:11:00;17.00;57.70
12874;DHT22;6505;51.114;13.128;2022-11-02T04:13:48;17.00;57.80
12874;DHT22;6505;51.114;13.128;2022-11-02T04:16:37;16.90;57.60
12874;DHT22;6505;51.114;13.128;2022-11-02T04:19:11;17.00;57.80
12874;DHT22;6505;51.114;13.128;2022-11-02T04:21:59;16.90;57.80
12874;DHT22;6505;51.114;13.128;2022-11-02T04:24:48;16.90;57.90
12874;DHT22;6505;51.114;13.128;2022-11-02T04:27:35;16.90;57.90
12874;DHT22;6505;51.114;13.128;2022-11-02T04:30:04;16.90;57.90
12874;DHT22;6505;51.114;13.128;2022-11-02T04:32:36;16.90;57.90
12874;DHT22;6505;51.114;13.128;2022-11-02T04:35:25;16.90;57.90
12874;DHT22;6505;51.114;13.128;2022-11-02T04:37:55;16.90;57.90
12874;DHT22;6505;51.114;13.128;2022-11-02T04:40:40;17.00;58.70
12874;DHT22;6505;51.114;13.128;2022-11-02T04:43:09;16.90;57.80
12874;DHT22;6505;51.114;13.128;2022-11-02T04:45:37;16.90;57.90
12874;DHT22;6505;51.114;13.128;2022-11-02T04:48:08;16.80;57.80
12874;DHT22;6505;51.114;13.128;2022-11-02T04:50:38;16.90;57.90
12874;DHT22;6505;51.114;13.128;2022-11-02T04:53:08;16.90;57.90
12874;DHT22;6505;51.114;13.128;2022-11-02T04:55:38;16.80;57.70
12874;DHT22;6505;51.114;13.128;2022-11-02T04:58:06;16.90;57.80
12874;DHT22;6505;51.114;13.128;2022-11-02T05:00:34;16.80;57.60
12874;DHT22;6505;51.114;13.128;2022-11-02T05:03:03;16.80;57.60
12874;DHT22;6505;51.114;13.128;2022-11-02T05:05:40;16.80;57.70
12874;DHT22;6505;51.114;13.128;2022-11-02T05:08:09;16.80;57.50
12874;DHT22;6505;51.114;13.128;2022-11-02T05:10:37;16.80;57.50
12874;DHT22;6505;51.114;13.128;2022-11-02T05:13:05;16.80;57.40
12874;DHT22;6505;51.114;13.128;2022-11-02T05:15:37;16.80;57.40
12874;DHT22;6505;51.114;13.128;2022-11-02T05:18:06;16.80;57.40
12874;DHT22;6505;51.114;13.128;2022-11-02T05:20:37;16.80;57.40
12874;DHT22;6505;51.114;13.128;2022-11-02T05:23:07;16.80;57.40
12874;DHT22;6505;51.114;13.128;2022-11-02T05:25:35;16.80;57.40
12874;DHT22;6505;51.114;13.128;2022-11-02T05:28:03;16.80;57.40
12874;DHT22;6505;51.114;13.128;2022-11-02T05:30:31;16.70;57.30
12874;DHT22;6505;51.114;13.128;2022-11-02T05:32:59;16.70;57.40
12874;DHT22;6505;51.114;13.128;2022-11-02T05:35:28;16.80;57.40
12874;DHT22;6505;51.114;13.128;2022-11-02T05:37:57;16.80;57.30
12874;DHT22;6505;51.114;13.128;2022-11-02T05:40:26;16.80;57.40
12874;DHT22;6505;51.114;13.128;2022-11-02T05:42:58;16.70;57.20
12874;DHT22;6505;51.114;13.128;2022-11-02T05:45:27;16.80;57.50
12874;DHT22;6505;51.114;13.128;2022-11-02T05:47:56;16.70;57.40
12874;DHT22;6505;51.114;13.128;2022-11-02T05:50:27;16.70;57.50
12874;DHT22;6505;51.114;13.128;2022-11-02T05:52:55;16.80;57.50
12874;DHT22;6505;51.114;13.128;2022-11-02T05:55:23;16.70;57.40
12874;DHT22;6505;51.114;13.128;2022-11-02T05:57:54;16.70;57.50
12874;DHT22;6505;51.114;13.128;2022-11-02T06:00:22;16.70;57.50
12874;DHT22;6505;51.114;13.128;2022-11-02T06:02:55;16.70;57.50
12874;DHT22;6505;51.114;13.128;2022-11-02T06:05:24;16.70;57.60
12874;DHT22;6505;51.114;13.128;2022-11-02T06:07:56;16.70;57.60
12874;DHT22;6505;51.114;13.128;2022-11-02T06:10:25;16.70;57.60
12874;DHT22;6505;51.114;13.128;2022-11-02T06:12:56;16.70;57.50
12874;DHT22;6505;51.114;13.128;2022-11-02T06:15:25;16.70;57.60
12874;DHT22;6505;51.114;13.128;2022-11-02T06:17:54;16.70;58.30
12874;DHT22;6505;51.114;13.128;2022-11-02T06:20:22;16.70;57.60
12874;DHT22;6505;51.114;13.128;2022-11-02T06:22:50;16.70;57.60
12874;DHT22;6505;51.114;13.128;2022-11-02T06:25:18;16.80;57.60
12874;DHT22;6505;51.114;13.128;2022-11-02T06:27:50;16.70;57.70
12874;DHT22;6505;51.114;13.128;2022-11-02T06:30:21;16.70;57.80
12874;DHT22;6505;51.114;13.128;2022-11-02T06:32:51;16.70;57.80
12874;DHT22;6505;51.114;13.128;2022-11-02T06:35:21;16.70;57.90
12874;DHT22;6505;51.114;13.128;2022-11-02T06:37:49;16.70;57.90
12874;DHT22;6505;51.114;13.128;2022-11-02T06:40:17;16.70;57.90
12874;DHT22;6505;51.114;13.128;2022-11-02T06:42:54;16.70;57.90
12874;DHT22;6505;51.114;13.128;2022-11-02T06:45:43;16.80;58.20
12874;DHT22;6505;51.114;13.128;2022-11-02T06:48:12;16.80;58.10
12874;DHT22;6505;51.114;13.128;2022-11-02T06:50:40;16.80;58.10
12874;DHT22;6505;51.114;13.128;2022-11-02T06:53:08;16.80;58.10
12874;DHT22;6505;51.114;13.128;2022-11-02T06:55:36;16.70;58.10
12874;DHT22;6505;51.114;13.128;2022-11-02T06:58:04;16.80;58.20
12874;DHT22;6505;51.114;13.128;2022-11-02T07:00:33;16.80;58.40
12874;DHT22;6505;51.114;13.128;2022-11-02T07:03:03;16.80;58.30
12874;DHT22;6505;51.114;13.128;2022-11-02T07:05:33;16.80;58.50
12874;DHT22;6505;51.114;13.128;2022-11-02T07:08:03;16.80;58.60
12874;DHT22;6505;51.114;13.128;2022-11-02T07:10:32;16.80;58.70
12874;DHT22;6505;51.114;13.128;2022-11-02T07:13:01;16.90;58.80
12874;DHT22;6505;51.114;13.128;2022-11-02T07:15:30;16.90;58.80
12874;DHT22;6505;51.114;13.128;2022-11-02T07:17:58;16.90;58.90
12874;DHT22;6505;51.114;13.128;2022-11-02T07:20:27;16.90;58.90
12874;DHT22;6505;51.114;13.128;2022-11-02T07:22:58;16.90;58.90
12874;DHT22;6505;51.114;13.128;2022-11-02T07:25:28;16.90;59.20
12874;DHT22;6505;51.114;13.128;2022-11-02T07:27:58;17.00;59.40
12874;DHT22;6505;51.114;13.128;2022-11-02T07:30:27;17.10;59.60
12874;DHT22;6505;51.114;13.128;2022-11-02T07:32:55;17.00;59.60
12874;DHT22;6505;51.114;13.128;2022-11-02T07:35:24;17.00;59.70
12874;DHT22;6505;51.114;13.128;2022-11-02T07:37:57;17.10;59.70
12874;DHT22;6505;51.114;13.128;2022-11-02T07:40:27;17.10;59.90
12874;DHT22;6505;51.114;13.128;2022-11-02T07:42:56;17.10;59.90
12874;DHT22;6505;51.114;13.128;2022-11-02T07:45:45;17.10;59.90
12874;DHT22;6505;51.114;13.128;2022-11-02T07:48:13;17.20;60.10
12874;DHT22;6505;51.114;13.128;2022-11-02T07:50:41;17.20;60.40
12874;DHT22;6505;51.114;13.128;2022-11-02T07:53:11;17.30;60.80
12874;DHT22;6505;51.114;13.128;2022-11-02T07:55:39;17.40;60.70
12874;DHT22;6505;51.114;13.128;2022-11-02T07:58:09;17.50;60.30
12874;DHT22;6505;51.114;13.128;2022-11-02T08:00:40;17.60;60.00
12874;DHT22;6505;51.114;13.128;2022-11-02T08:03:10;17.70;59.90
12874;DHT22;6505;51.114;13.128;2022-11-02T08:05:41;17.70;59.70
12874;DHT22;6505;51.114;13.128;2022-11-02T08:08:14;17.80;59.60
12874;DHT22;6505;51.114;13.128;2022-11-02T08:10:45;17.80;60.10
12874;DHT22;6505;51.114;13.128;2022-11-02T08:13:17;17.90;59.30
12874;DHT22;6505;51.114;13.128;2022-11-02T08:15:48;17.90;59.20
12874;DHT22;6505;51.114;13.128;2022-11-02T08:18:19;17.90;59.20
12874;DHT22;6505;51.114;13.128;2022-11-02T08:20:48;18.00;59.10
12874;DHT22;6505;51.114;13.128;2022-11-02T08:23:18;17.90;59.00
12874;DHT22;6505;51.114;13.128;2022-11-02T08:25:48;18.00;59.20
12874;DHT22;6505;51.114;13.128;2022-11-02T08:28:20;18.00;59.10
12874;DHT22;6505;51.114;13.128;2022-11-02T08:30:49;18.00;59.10
12874;DHT22;6505;51.114;13.128;2022-11-02T08:33:18;18.00;59.20
12874;DHT22;6505;51.114;13.128;2022-11-02T08:35:47;18.10;59.20
12874;DHT22;6505;51.114;13.128;2022-11-02T08:38:17;18.10;59.20
12874;DHT22;6505;51.114;13.128;2022-11-02T08:40:48;18.10;59.10
12874;DHT22;6505;51.114;13.128;2022-11-02T08:43:16;18.20;59.40
12874;DHT22;6505;51.114;13.128;2022-11-02T08:45:45;18.10;59.90
12874;DHT22;6505;51.114;13.128;2022-11-02T08:48:33;18.20;59.50
12874;DHT22;6505;51.114;13.128;2022-11-02T08:51:01;18.20;59.30
12874;DHT22;6505;51.114;13.128;2022-11-02T08:53:32;18.30;59.40
12874;DHT22;6505;51.114;13.128;2022-11-02T08:56:00;18.40;59.50
12874;DHT22;6505;51.114;13.128;2022-11-02T08:58:28;18.40;59.40
12874;DHT22;6505;51.114;13.128;2022-11-02T09:00:56;18.40;59.10
12874;DHT22;6505;51.114;13.128;2022-11-02T09:03:24;18.40;59.00
12874;DHT22;6505;51.114;13.128;2022-11-02T09:05:58;18.50;58.90
12874;DHT22;6505;51.114;13.128;2022-11-02T09:08:27;18.60;59.10
12874;DHT22;6505;51.114;13.128;2022-11-02T09:11:00;18.60;59.00
12874;DHT22;6505;51.114;13.128;2022-11-02T09:13:29;18.60;58.90
12874;DHT22;6505;51.114;13.128;2022-11-02T09:15:58;18.60;58.80
12874;DHT22;6505;51.114;13.128;2022-11-02T09:18:28;18.60;58.90
12874;DHT22;6505;51.114;13.128;2022-11-02T09:21:00;18.60;58.90
12874;DHT22;6505;51.114;13.128;2022-11-02T09:23:29;18.70;58.80
12874;DHT22;6505;51.114;13.128;2022-11-02T09:25:59;18.70;58.70
12874;DHT22;6505;51.114;13.128;2022-11-02T09:28:27;18.70;58.40
12874;DHT22;6505;51.114;13.128;2022-11-02T09:30:55;18.80;58.40
12874;DHT22;6505;51.114;13.128;2022-11-02T09:33:23;18.80;58.30
12874;DHT22;6505;51.114;13.128;2022-11-02T09:35:51;18.90;58.30
12874;DHT22;6505;51.114;13.128;2022-11-02T09:38:20;18.80;58.20
12874;DHT22;6505;51.114;13.128;2022-11-02T09:40:58;18.80;58.20
12874;DHT22;6505;51.114;13.128;2022-11-02T09:43:41;18.80;58.20
12874;DHT22;6505;51.114;13.128;2022-11-02T09:46:19;18.80;58.30
12874;DHT22;6505;51.114;13.128;2022-11-02T09:48:54;18.80;58.30
12874;DHT22;6505;51.114;13.128;2022-11-02T09:51:27;18.80;58.30
12874;DHT22;6505;51.114;13.128;2022-11-02T09:54:04;18.80;58.10
12874;DHT22;6505;51.114;13.128;2022-11-02T09:56:42;18.90;58.40
12874;DHT22;6505;51.114;13.128;2022-11-02T09:59:13;18.80;58.30
12874;DHT22;6505;51.114;13.128;2022-11-02T10:01:52;18.80;58.30
12874;DHT22;6505;51.114;13.128;2022-11-02T10:04:48;18.80;58.40
12874;DHT22;6505;51.114;13.128;2022-11-02T10:10:33;18.80;58.40
12874;DHT22;6505;51.114;13.128;2022-11-02T10:13:15;18.80;58.30
12874;DHT22;6505;51.114;13.128;2022-11-02T10:15:54;18.80;58.20
12874;DHT22;6505;51.114;13.128;2022-11-02T10:18:28;18.90;58.30
12874;DHT22;6505;51.114;13.128;2022-11-02T10:20:58;18.80;58.30
12874;DHT22;6505;51.114;13.128;2022-11-02T10:23:30;18.80;58.30
12874;DHT22;6505;51.114;13.128;2022-11-02T10:26:02;18.80;58.30
12874;DHT22;6505;51.114;13.128;2022-11-02T10:28:34;18.80;58.30
12874;DHT22;6505;51.114;13.128;2022-11-02T10:31:17;18.90;58.40
12874;DHT22;6505;51.114;13.128;2022-11-02T10:33:52;18.80;58.30
12874;DHT22;6505;51.114;13.128;2022-11-02T10:36:42;18.90;58.50
12874;DHT22;6505;51.114;13.128;2022-11-02T10:39:22;18.90;58.40
12874;DHT22;6505;51.114;13.128;2022-11-02T10:42:13;19.00;58.60
12874;DHT22;6505;51.114;13.128;2022-11-02T10:45:04;19.00;58.70
12874;DHT22;6505;51.114;13.128;2022-11-02T10:47:54;19.00;58.50
12874;DHT22;6505;51.114;13.128;2022-11-02T10:50:40;19.10;58.40
12874;DHT22;6505;51.114;13.128;2022-11-02T10:53:14;19.10;58.30
12874;DHT22;6505;51.114;13.128;2022-11-02T10:56:11;19.10;58.30
12874;DHT22;6505;51.114;13.128;2022-11-02T10:58:48;19.20;58.00
12874;DHT22;6505;51.114;13.128;2022-11-02T11:01:20;19.30;58.20
12874;DHT22;6505;51.114;13.128;2022-11-02T11:03:53;19.30;57.70
12874;DHT22;6505;51.114;13.128;2022-11-02T11:06:24;19.30;57.70
12874;DHT22;6505;51.114;13.128;2022-11-02T11:08:59;19.30;57.40
12874;DHT22;6505;51.114;13.128;2022-11-02T11:11:31;19.40;57.10
12874;DHT22;6505;51.114;13.128;2022-11-02T11:14:03;19.40;57.00
12874;DHT22;6505;51.114;13.128;2022-11-02T11:16:57;19.40;56.90
12874;DHT22;6505;51.114;13.128;2022-11-02T11:19:47;19.50;56.50
12874;DHT22;6505;51.114;13.128;2022-11-02T11:22:26;19.50;56.40
12874;DHT22;6505;51.114;13.128;2022-11-02T11:25:19;19.50;56.20
12874;DHT22;6505;51.114;13.128;2022-11-02T11:27:55;19.60;56.20
12874;DHT22;6505;51.114;13.128;2022-11-02T11:30:26;19.60;55.50
12874;DHT22;6505;51.114;13.128;2022-11-02T11:33:18;19.60;55.10
12874;DHT22;6505;51.114;13.128;2022-11-02T11:35:49;19.70;55.00
12874;DHT22;6505;51.114;13.128;2022-11-02T11:38:20;19.70;54.90
12874;DHT22;6505;51.114;13.128;2022-11-02T11:40:53;19.70;54.70
12874;DHT22;6505;51.114;13.128;2022-11-02T11:43:26;19.60;55.00
12874;DHT22;6505;51.114;13.128;2022-11-02T11:46:02;19.60;54.10
12874;DHT22;6505;51.114;13.128;2022-11-02T11:48:37;19.70;54.20
12874;DHT22;6505;51.114;13.128;2022-11-02T11:51:26;19.70;54.20
12874;DHT22;6505;51.114;13.128;2022-11-02T11:54:18;19.70;54.20
12874;DHT22;6505;51.114;13.128;2022-11-02T11:56:50;19.70;53.90
12874;DHT22;6505;51.114;13.128;2022-11-02T11:59:28;19.70;53.90
12874;DHT22;6505;51.114;13.128;2022-11-02T12:02:00;19.70;53.50
12874;DHT22;6505;51.114;13.128;2022-11-02T12:04:33;19.70;53.90
12874;DHT22;6505;51.114;13.128;2022-11-02T12:07:17;19.70;53.50
12874;DHT22;6505;51.114;13.128;2022-11-02T12:10:02;19.70;53.90
12874;DHT22;6505;51.114;13.128;2022-11-02T12:12:46;19.80;53.40
12874;DHT22;6505;51.114;13.128;2022-11-02T12:15:45;19.70;53.00
12874;DHT22;6505;51.114;13.128;2022-11-02T12:18:32;19.70;52.50
12874;DHT22;6505;51.114;13.128;2022-11-02T12:21:21;19.80;52.80
12874;DHT22;6505;51.114;13.128;2022-11-02T12:24:28;19.70;52.20
12874;DHT22;6505;51.114;13.128;2022-11-02T12:27:15;19.80;52.50
12874;DHT22;6505;51.114;13.128;2022-11-02T12:30:00;19.70;52.40
12874;DHT22;6505;51.114;13.128;2022-11-02T12:32:46;19.80;52.70
12874;DHT22;6505;51.114;13.128;2022-11-02T12:35:42;19.80;52.60
12874;DHT22;6505;51.114;13.128;2022-11-02T12:38:33;19.80;52.30
12874;DHT22;6505;51.114;13.128;2022-11-02T12:41:10;19.70;51.90
12874;DHT22;6505;51.114;13.128;2022-11-02T12:43:42;19.70;51.80
12874;DHT22;6505;51.114;13.128;2022-11-02T12:46:21;19.70;51.60
12874;DHT22;6505;51.114;13.128;2022-11-02T12:49:22;19.70;51.50
12874;DHT22;6505;51.114;13.128;2022-11-02T12:52:09;19.80;51.90
12874;DHT22;6505;51.114;13.128;2022-11-02T12:54:47;19.70;52.10
12874;DHT22;6505;51.114;13.128;2022-11-02T12:57:22;19.70;51.70
12874;DHT22;6505;51.114;13.128;2022-11-02T12:59:53;19.70;52.40
12874;DHT22;6505;51.114;13.128;2022-11-02T13:02:30;19.80;51.50
12874;DHT22;6505;51.114;13.128;2022-11-02T13:05:08;19.80;51.30
12874;DHT22;6505;51.114;13.128;2022-11-02T13:07:43;19.70;51.20
12874;DHT22;6505;51.114;13.128;2022-11-02T13:10:20;19.80;50.90
12874;DHT22;6505;51.114;13.128;2022-11-02T13:12:55;19.70;50.30
12874;DHT22;6505;51.114;13.128;2022-11-02T13:15:26;19.80;50.50
12874;DHT22;6505;51.114;13.128;2022-11-02T13:18:00;19.70;50.50
12874;DHT22;6505;51.114;13.128;2022-11-02T13:20:38;19.80;50.40
12874;DHT22;6505;51.114;13.128;2022-11-02T13:23:17;19.70;50.40
12874;DHT22;6505;51.114;13.128;2022-11-02T13:25:57;19.70;50.40
12874;DHT22;6505;51.114;13.128;2022-11-02T13:28:33;19.70;50.20
12874;DHT22;6505;51.114;13.128;2022-11-02T13:31:12;19.70;50.30
12874;DHT22;6505;51.114;13.128;2022-11-02T13:33:46;19.60;50.20
12874;DHT22;6505;51.114;13.128;2022-11-02T13:36:16;19.70;50.50
12874;DHT22;6505;51.114;13.128;2022-11-02T13:38:47;19.60;50.20
12874;DHT22;6505;51.114;13.128;2022-11-02T13:44:25;19.60;50.50
12874;DHT22;6505;51.114;13.128;2022-11-02T13:47:10;19.60;50.50
12874;DHT22;6505;51.114;13.128;2022-11-02T13:49:56;19.60;50.60
12874;DHT22;6505;51.114;13.128;2022-11-02T13:52:33;19.60;50.80
12874;DHT22;6505;51.114;13.128;2022-11-02T13:55:07;19.60;50.60
12874;DHT22;6505;51.114;13.128;2022-11-02T13:57:44;19.60;50.50
12874;DHT22;6505;51.114;13.128;2022-11-02T14:00:29;19.60;50.70
12874;DHT22;6505;51.114;13.128;2022-11-02T14:03:06;19.50;50.40
12874;DHT22;6505;51.114;13.128;2022-11-02T14:05:45;19.50;50.30
12874;DHT22;6505;51.114;13.128;2022-11-02T14:08:21;19.60;51.00
12874;DHT22;6505;51.114;13.128;2022-11-02T14:11:03;19.50;50.70
12874;DHT22;6505;51.114;13.128;2022-11-02T14:14:06;19.50;50.50
12874;DHT22;6505;51.114;13.128;2022-11-02T14:16:45;19.50;50.60
12874;DHT22;6505;51.114;13.128;2022-11-02T14:19:29;19.40;50.60
12874;DHT22;6505;51.114;13.128;2022-11-02T14:22:10;19.60;50.80
12874;DHT22;6505;51.114;13.128;2022-11-02T14:27:43;19.40;50.50
12874;DHT22;6505;51.114;13.128;2022-11-02T14:30:42;19.50;50.90
12874;DHT22;6505;51.114;13.128;2022-11-02T14:33:30;19.40;50.70
12874;DHT22;6505;51.114;13.128;2022-11-02T14:36:17;19.40;50.90
12874;DHT22;6505;51.114;13.128;2022-11-02T14:39:04;19.40;50.80
12874;DHT22;6505;51.114;13.128;2022-11-02T14:42:00;19.30;51.00
12874;DHT22;6505;51.114;13.128;2022-11-02T14:48:13;19.30;51.00
12874;DHT22;6505;51.114;13.128;2022-11-02T14:50:52;19.30;50.90
12874;DHT22;6505;51.114;13.128;2022-11-02T14:53:26;19.30;51.10
12874;DHT22;6505;51.114;13.128;2022-11-02T14:55:58;19.30;51.10
12874;DHT22;6505;51.114;13.128;2022-11-02T14:58:31;19.30;51.20
12874;DHT22;6505;51.114;13.128;2022-11-02T15:01:02;19.20;51.20
12874;DHT22;6505;51.114;13.128;2022-11-02T15:03:36;19.30;51.50
12874;DHT22;6505;51.114;13.128;2022-11-02T15:06:14;19.30;51.40
12874;DHT22;6505;51.114;13.128;2022-11-02T15:08:52;19.30;51.30
12874;DHT22;6505;51.114;13.128;2022-11-02T15:11:43;19.20;51.20
12874;DHT22;6505;51.114;13.128;2022-11-02T15:14:52;19.20;51.20
12874;DHT22;6505;51.114;13.128;2022-11-02T15:17:51;19.20;51.40
12874;DHT22;6505;51.114;13.128;2022-11-02T15:20:29;19.20;51.30
12874;DHT22;6505;51.114;13.128;2022-11-02T15:23:17;19.20;51.40
12874;DHT22;6505;51.114;13.128;2022-11-02T15:25:57;19.20;51.60
12874;DHT22;6505;51.114;13.128;2022-11-02T15:28:27;19.10;51.70
12874;DHT22;6505;51.114;13.128;2022-11-02T15:31:02;19.10;51.60
12874;DHT22;6505;51.114;13.128;2022-11-02T15:33:36;19.10;51.60
12874;DHT22;6505;51.114;13.128;2022-11-02T15:36:17;19.10;51.70
12874;DHT22;6505;51.114;13.128;2022-11-02T15:38:51;19.10;51.50
12874;DHT22;6505;51.114;13.128;2022-11-02T15:41:25;19.10;51.60
12874;DHT22;6505;51.114;13.128;2022-11-02T15:44:10;19.00;51.40
12874;DHT22;6505;51.114;13.128;2022-11-02T15:46:57;19.00;51.60
12874;DHT22;6505;51.114;13.128;2022-11-02T15:50:11;19.00;51.70
12874;DHT22;6505;51.114;13.128;2022-11-02T15:53:05;18.90;51.50
12874;DHT22;6505;51.114;13.128;2022-11-02T15:55:59;19.00;51.70
12874;DHT22;6505;51.114;13.128;2022-11-02T15:59:08;19.00;52.50
12874;DHT22;6505;51.114;13.128;2022-11-02T16:02:01;18.90;51.80
12874;DHT22;6505;51.114;13.128;2022-11-02T16:04:43;18.90;51.60
12874;DHT22;6505;51.114;13.128;2022-11-02T16:07:13;18.80;51.70
12874;DHT22;6505;51.114;13.128;2022-11-02T16:09:46;18.80;51.80
12874;DHT22;6505;51.114;13.128;2022-11-02T16:12:16;18.80;51.70
12874;DHT22;6505;51.114;13.128;2022-11-02T16:14:51;18.80;51.90
12874;DHT22;6505;51.114;13.128;2022-11-02T16:17:23;18.80;51.80
12874;DHT22;6505;51.114;13.128;2022-11-02T16:20:08;18.80;52.00
12874;DHT22;6505;51.114;13.128;2022-11-02T16:22:37;18.70;52.50
12874;DHT22;6505;51.114;13.128;2022-11-02T16:25:10;18.70;51.80
12874;DHT22;6505;51.114;13.128;2022-11-02T16:27:45;18.70;51.80
12874;DHT22;6505;51.114;13.128;2022-11-02T16:30:18;18.60;51.70
12874;DHT22;6505;51.114;13.128;2022-11-02T16:32:50;18.60;51.80
12874;DHT22;6505;51.114;13.128;2022-11-02T16:35:25;18.60;51.80